createdAt,value
2022-12-23T00:00:00.283Z,22
2022-12-23T00:10:00.313Z,22
2022-12-23T00:20:00.278Z,23
2022-12-23T00:30:00.259Z,25
2022-12-23T00:40:06.290Z,26
2022-12-23T00:50:00.270Z,24
2022-12-23T01:00:00.990Z,24
2022-12-23T01:10:00.807Z,23
2022-12-23T01:20:00.384Z,26
2022-12-23T01:30:00.520Z,45
2022-12-23T01:40:00.546Z,43
2022-12-23T01:50:00.514Z,45
2022-12-23T02:00:00.807Z,45
2022-12-23T02:10:00.600Z,41
2022-12-23T02:20:00.372Z,34
2022-12-23T02:30:01.191Z,28
2022-12-23T02:40:00.853Z,29
2022-12-23T02:50:01.458Z,36
2022-12-23T03:00:00.310Z,69
2022-12-23T03:10:00.243Z,80
2022-12-23T03:20:00.239Z,39
2022-12-23T03:30:00.250Z,42
2022-12-23T03:40:00.318Z,27
2022-12-23T03:50:00.442Z,30
2022-12-23T04:00:00.677Z,27
2022-12-23T04:10:00.373Z,31
2022-12-23T04:20:00.806Z,63
2022-12-23T04:30:00.744Z,75
2022-12-23T04:40:01.032Z,81
2022-12-23T04:50:00.840Z,78
2022-12-23T05:00:00.659Z,90
2022-12-23T05:10:00.362Z,67
2022-12-23T05:20:00.581Z,72
2022-12-23T05:30:00.685Z,84
2022-12-23T05:40:00.754Z,84
2022-12-23T05:50:00.787Z,69
2022-12-23T06:00:01.291Z,89
2022-12-23T06:10:01.019Z,68
2022-12-23T06:20:00.619Z,63
2022-12-23T06:30:00.446Z,106
2022-12-23T06:40:00.244Z,106
2022-12-23T06:50:00.255Z,88
2022-12-23T07:00:00.339Z,82
2022-12-23T07:10:00.347Z,103
2022-12-23T07:20:00.270Z,88
2022-12-23T07:30:00.281Z,121
2022-12-23T07:40:06.508Z,142
2022-12-23T07:50:00.875Z,88
2022-12-23T08:00:01.296Z,98
2022-12-23T08:10:00.433Z,186
2022-12-23T08:20:00.452Z,197
2022-12-23T08:30:00.351Z,168
2022-12-23T08:40:01.917Z,125
2022-12-23T08:50:00.931Z,145
2022-12-23T09:00:00.336Z,102
2022-12-23T09:10:00.284Z,111
2022-12-23T09:20:00.267Z,319
2022-12-23T09:30:00.286Z,155
2022-12-23T09:40:00.272Z,355
2022-12-23T09:50:00.249Z,351
2022-12-23T10:00:00.314Z,125
2022-12-23T10:10:00.250Z,131
2022-12-23T10:20:00.239Z,94
2022-12-23T10:30:13.893Z,152
2022-12-23T10:40:00.243Z,361
2022-12-23T10:50:00.239Z,234
2022-12-23T11:00:00.304Z,140
2022-12-23T11:10:00.270Z,292
2022-12-23T11:20:00.267Z,190
2022-12-23T11:30:00.288Z,143
2022-12-23T11:40:00.280Z,178
2022-12-23T11:50:00.266Z,112
2022-12-23T12:00:00.294Z,82
2022-12-23T12:10:00.242Z,81
2022-12-23T12:20:00.373Z,70
2022-12-23T12:30:06.156Z,64
2022-12-23T12:40:00.622Z,59
2022-12-23T12:50:00.672Z,60
2022-12-23T13:00:06.089Z,90
2022-12-23T13:10:00.748Z,95
2022-12-23T13:20:00.637Z,75
2022-12-23T13:30:00.365Z,63
2022-12-23T13:40:00.364Z,113
2022-12-23T13:50:00.251Z,138
2022-12-23T14:00:05.353Z,164
2022-12-23T14:10:00.259Z,86
2022-12-23T14:20:00.290Z,106
2022-12-23T14:30:05.726Z,106
2022-12-23T14:40:00.255Z,214
2022-12-23T14:50:01.053Z,137
2022-12-23T15:00:01.480Z,189
2022-12-23T15:10:01.606Z,108
2022-12-23T15:20:00.511Z,124
2022-12-23T15:30:00.360Z,163
2022-12-23T15:40:11.446Z,225
2022-12-23T15:50:00.493Z,93
2022-12-23T16:00:01.337Z,237
2022-12-23T16:10:00.472Z,337
2022-12-23T16:20:00.257Z,192
2022-12-23T16:30:00.530Z,160
2022-12-23T16:40:00.462Z,354
2022-12-23T16:50:00.263Z,233
2022-12-23T17:00:00.680Z,134
2022-12-23T17:10:00.337Z,153
2022-12-23T17:20:00.294Z,77
2022-12-23T17:30:00.242Z,68
2022-12-23T17:40:00.270Z,87
2022-12-23T17:50:00.253Z,389
2022-12-23T18:00:00.333Z,88
2022-12-23T18:10:00.221Z,30
2022-12-23T18:20:00.227Z,24
2022-12-23T18:30:00.304Z,58
2022-12-23T18:40:00.365Z,20
2022-12-23T18:50:00.249Z,51
2022-12-23T19:00:00.272Z,212
2022-12-23T19:10:00.230Z,195
2022-12-23T19:20:00.248Z,159
2022-12-23T19:30:00.382Z,133
2022-12-23T19:40:00.261Z,82
2022-12-23T19:50:00.237Z,61
2022-12-23T20:00:00.300Z,188
2022-12-23T20:10:00.284Z,81
2022-12-23T20:20:00.255Z,326
2022-12-23T20:30:00.304Z,271
2022-12-23T20:40:00.264Z,238
2022-12-23T20:50:00.255Z,259
2022-12-23T21:00:00.438Z,233
2022-12-23T21:10:00.425Z,295
2022-12-23T21:20:06.954Z,258
2022-12-23T21:30:00.323Z,384
2022-12-23T21:40:00.325Z,203
2022-12-23T21:50:00.259Z,326
2022-12-23T22:00:00.329Z,330
2022-12-23T22:10:00.246Z,369
2022-12-23T22:20:00.250Z,198
2022-12-23T22:30:00.257Z,159
2022-12-23T22:40:00.297Z,158
2022-12-23T22:50:00.254Z,141
2022-12-23T23:00:04.774Z,181
2022-12-23T23:10:00.301Z,181
2022-12-23T23:20:00.285Z,263
2022-12-23T23:30:00.282Z,164
2022-12-23T23:40:00.318Z,151
2022-12-23T23:50:00.264Z,122
